sensor_id;sensor_type;location;lat;lon;timestamp;P1;durP1;ratioP1;P2;durP2;ratioP2
35961;SDS011;22044;48.298;10.008;2023-01-29T00:00:35;13.67;;;9.77;;
35961;SDS011;22044;48.298;10.008;2023-01-29T00:03:24;11.83;;;8.83;;
35961;SDS011;22044;48.298;10.008;2023-01-29T00:06:10;11.63;;;8.83;;
35961;SDS011;22044;48.298;10.008;2023-01-29T00:08:56;11.50;;;8.90;;
35961;SDS011;22044;48.298;10.008;2023-01-29T00:11:41;11.67;;;9.27;;
35961;SDS011;22044;48.298;10.008;2023-01-29T00:14:27;12.17;;;9.13;;
35961;SDS011;22044;48.298;10.008;2023-01-29T00:17:13;12.10;;;8.93;;
35961;SDS011;22044;48.298;10.008;2023-01-29T00:19:59;10.60;;;8.73;;
35961;SDS011;22044;48.298;10.008;2023-01-29T00:22:45;11.43;;;8.83;;
35961;SDS011;22044;48.298;10.008;2023-01-29T00:25:31;12.60;;;9.40;;
35961;SDS011;22044;48.298;10.008;2023-01-29T00:28:16;11.97;;;9.20;;
35961;SDS011;22044;48.298;10.008;2023-01-29T00:31:06;12.43;;;9.97;;
35961;SDS011;22044;48.298;10.008;2023-01-29T00:33:52;11.37;;;9.40;;
35961;SDS011;22044;48.298;10.008;2023-01-29T00:36:39;12.40;;;9.60;;
35961;SDS011;22044;48.298;10.008;2023-01-29T00:39:27;14.97;;;9.90;;
35961;SDS011;22044;48.298;10.008;2023-01-29T00:42:21;13.07;;;9.67;;
35961;SDS011;22044;48.298;10.008;2023-01-29T00:45:24;10.57;;;8.87;;
35961;SDS011;22044;48.298;10.008;2023-01-29T00:48:10;10.50;;;8.50;;
35961;SDS011;22044;48.298;10.008;2023-01-29T00:50:56;14.03;;;9.33;;
35961;SDS011;22044;48.298;10.008;2023-01-29T00:53:43;12.13;;;9.37;;
35961;SDS011;22044;48.298;10.008;2023-01-29T00:56:28;10.20;;;8.60;;
35961;SDS011;22044;48.298;10.008;2023-01-29T00:59:14;13.03;;;9.80;;
35961;SDS011;22044;48.298;10.008;2023-01-29T01:02:02;12.40;;;8.70;;
35961;SDS011;22044;48.298;10.008;2023-01-29T01:05:06;11.13;;;9.03;;
35961;SDS011;22044;48.298;10.008;2023-01-29T01:08:00;12.33;;;9.57;;
35961;SDS011;22044;48.298;10.008;2023-01-29T01:10:47;12.10;;;9.17;;
35961;SDS011;22044;48.298;10.008;2023-01-29T01:13:41;15.47;;;9.67;;
35961;SDS011;22044;48.298;10.008;2023-01-29T01:16:27;12.10;;;9.07;;
35961;SDS011;22044;48.298;10.008;2023-01-29T01:19:12;13.67;;;9.70;;
35961;SDS011;22044;48.298;10.008;2023-01-29T01:21:59;12.47;;;9.23;;
35961;SDS011;22044;48.298;10.008;2023-01-29T01:24:45;14.37;;;9.03;;
35961;SDS011;22044;48.298;10.008;2023-01-29T01:27:32;10.93;;;8.30;;
35961;SDS011;22044;48.298;10.008;2023-01-29T01:30:17;12.80;;;9.33;;
35961;SDS011;22044;48.298;10.008;2023-01-29T01:33:03;12.83;;;8.87;;
35961;SDS011;22044;48.298;10.008;2023-01-29T01:35:48;13.13;;;9.63;;
35961;SDS011;22044;48.298;10.008;2023-01-29T01:38:35;13.00;;;9.90;;
35961;SDS011;22044;48.298;10.008;2023-01-29T01:41:30;12.33;;;9.77;;
35961;SDS011;22044;48.298;10.008;2023-01-29T01:47:39;12.10;;;8.73;;
35961;SDS011;22044;48.298;10.008;2023-01-29T01:50:30;13.53;;;9.00;;
35961;SDS011;22044;48.298;10.008;2023-01-29T01:53:19;15.10;;;9.60;;
35961;SDS011;22044;48.298;10.008;2023-01-29T01:56:12;14.17;;;9.47;;
35961;SDS011;22044;48.298;10.008;2023-01-29T01:59:02;12.93;;;10.17;;
35961;SDS011;22044;48.298;10.008;2023-01-29T02:01:52;12.97;;;9.63;;
35961;SDS011;22044;48.298;10.008;2023-01-29T02:04:41;13.17;;;10.00;;
35961;SDS011;22044;48.298;10.008;2023-01-29T02:07:48;12.30;;;9.13;;
35961;SDS011;22044;48.298;10.008;2023-01-29T02:10:53;12.80;;;9.23;;
35961;SDS011;22044;48.298;10.008;2023-01-29T02:13:40;11.70;;;8.80;;
35961;SDS011;22044;48.298;10.008;2023-01-29T02:16:26;12.57;;;8.97;;
35961;SDS011;22044;48.298;10.008;2023-01-29T02:19:20;11.30;;;8.63;;
35961;SDS011;22044;48.298;10.008;2023-01-29T02:25:42;11.73;;;8.40;;
35961;SDS011;22044;48.298;10.008;2023-01-29T02:28:42;11.67;;;8.60;;
35961;SDS011;22044;48.298;10.008;2023-01-29T02:31:33;10.80;;;8.37;;
35961;SDS011;22044;48.298;10.008;2023-01-29T02:34:27;12.67;;;8.77;;
35961;SDS011;22044;48.298;10.008;2023-01-29T02:37:41;11.87;;;8.70;;
35961;SDS011;22044;48.298;10.008;2023-01-29T02:40:37;11.27;;;8.83;;
35961;SDS011;22044;48.298;10.008;2023-01-29T02:43:29;11.60;;;8.83;;
35961;SDS011;22044;48.298;10.008;2023-01-29T02:46:28;13.43;;;9.00;;
35961;SDS011;22044;48.298;10.008;2023-01-29T02:49:21;10.77;;;8.10;;
35961;SDS011;22044;48.298;10.008;2023-01-29T02:52:12;11.33;;;8.43;;
35961;SDS011;22044;48.298;10.008;2023-01-29T02:55:03;12.20;;;8.97;;
35961;SDS011;22044;48.298;10.008;2023-01-29T02:57:54;13.43;;;9.23;;
35961;SDS011;22044;48.298;10.008;2023-01-29T03:00:44;12.20;;;8.60;;
35961;SDS011;22044;48.298;10.008;2023-01-29T03:03:35;13.23;;;9.47;;
35961;SDS011;22044;48.298;10.008;2023-01-29T03:06:26;12.37;;;9.50;;
35961;SDS011;22044;48.298;10.008;2023-01-29T03:09:18;14.20;;;10.27;;
35961;SDS011;22044;48.298;10.008;2023-01-29T03:12:12;14.63;;;10.90;;
35961;SDS011;22044;48.298;10.008;2023-01-29T03:15:14;12.23;;;9.47;;
35961;SDS011;22044;48.298;10.008;2023-01-29T03:18:23;12.93;;;9.83;;
35961;SDS011;22044;48.298;10.008;2023-01-29T03:21:18;13.97;;;9.80;;
35961;SDS011;22044;48.298;10.008;2023-01-29T03:24:34;15.60;;;10.10;;
35961;SDS011;22044;48.298;10.008;2023-01-29T03:27:43;13.73;;;10.17;;
35961;SDS011;22044;48.298;10.008;2023-01-29T03:30:55;14.20;;;10.10;;
35961;SDS011;22044;48.298;10.008;2023-01-29T03:34:11;13.40;;;9.20;;
35961;SDS011;22044;48.298;10.008;2023-01-29T03:37:10;14.50;;;10.67;;
35961;SDS011;22044;48.298;10.008;2023-01-29T03:40:00;14.90;;;10.30;;
35961;SDS011;22044;48.298;10.008;2023-01-29T03:42:49;14.27;;;10.63;;
35961;SDS011;22044;48.298;10.008;2023-01-29T03:45:51;14.93;;;10.17;;
35961;SDS011;22044;48.298;10.008;2023-01-29T03:48:43;14.33;;;9.47;;
35961;SDS011;22044;48.298;10.008;2023-01-29T03:51:35;14.40;;;10.30;;
35961;SDS011;22044;48.298;10.008;2023-01-29T03:54:28;16.00;;;10.73;;
35961;SDS011;22044;48.298;10.008;2023-01-29T03:57:24;14.07;;;10.43;;
35961;SDS011;22044;48.298;10.008;2023-01-29T04:00:17;15.23;;;11.70;;
35961;SDS011;22044;48.298;10.008;2023-01-29T04:03:19;15.00;;;10.90;;
35961;SDS011;22044;48.298;10.008;2023-01-29T04:06:10;15.43;;;11.23;;
35961;SDS011;22044;48.298;10.008;2023-01-29T04:09:13;14.33;;;11.00;;
35961;SDS011;22044;48.298;10.008;2023-01-29T04:12:07;13.83;;;10.53;;
35961;SDS011;22044;48.298;10.008;2023-01-29T04:14:56;17.33;;;11.73;;
35961;SDS011;22044;48.298;10.008;2023-01-29T04:17:46;14.47;;;10.77;;
35961;SDS011;22044;48.298;10.008;2023-01-29T04:20:50;14.70;;;10.20;;
35961;SDS011;22044;48.298;10.008;2023-01-29T04:23:35;14.23;;;10.73;;
35961;SDS011;22044;48.298;10.008;2023-01-29T04:26:29;15.33;;;10.77;;
35961;SDS011;22044;48.298;10.008;2023-01-29T04:29:31;14.17;;;10.17;;
35961;SDS011;22044;48.298;10.008;2023-01-29T04:32:29;14.50;;;11.00;;
35961;SDS011;22044;48.298;10.008;2023-01-29T04:35:21;14.40;;;10.90;;
35961;SDS011;22044;48.298;10.008;2023-01-29T04:38:17;15.20;;;11.10;;
35961;SDS011;22044;48.298;10.008;2023-01-29T04:41:10;15.27;;;11.07;;
35961;SDS011;22044;48.298;10.008;2023-01-29T04:44:05;13.23;;;10.00;;
35961;SDS011;22044;48.298;10.008;2023-01-29T04:47:02;15.10;;;10.73;;
35961;SDS011;22044;48.298;10.008;2023-01-29T04:49:55;14.50;;;10.60;;
35961;SDS011;22044;48.298;10.008;2023-01-29T04:52:48;13.87;;;10.37;;
35961;SDS011;22044;48.298;10.008;2023-01-29T04:55:41;15.37;;;10.50;;
35961;SDS011;22044;48.298;10.008;2023-01-29T04:58:30;14.53;;;10.50;;
35961;SDS011;22044;48.298;10.008;2023-01-29T05:01:18;15.43;;;11.03;;
35961;SDS011;22044;48.298;10.008;2023-01-29T05:04:10;14.40;;;10.40;;
35961;SDS011;22044;48.298;10.008;2023-01-29T05:07:00;14.30;;;10.30;;
35961;SDS011;22044;48.298;10.008;2023-01-29T05:09:48;14.13;;;10.40;;
35961;SDS011;22044;48.298;10.008;2023-01-29T05:12:35;14.37;;;10.20;;
35961;SDS011;22044;48.298;10.008;2023-01-29T05:15:22;16.97;;;11.23;;
35961;SDS011;22044;48.298;10.008;2023-01-29T05:18:10;14.63;;;10.77;;
35961;SDS011;22044;48.298;10.008;2023-01-29T05:20:57;15.07;;;10.93;;
35961;SDS011;22044;48.298;10.008;2023-01-29T05:23:47;13.93;;;10.00;;
35961;SDS011;22044;48.298;10.008;2023-01-29T05:26:51;15.60;;;10.83;;
35961;SDS011;22044;48.298;10.008;2023-01-29T05:29:56;16.83;;;10.50;;
35961;SDS011;22044;48.298;10.008;2023-01-29T05:32:42;15.37;;;11.00;;
35961;SDS011;22044;48.298;10.008;2023-01-29T05:35:27;14.00;;;10.43;;
35961;SDS011;22044;48.298;10.008;2023-01-29T05:38:15;15.77;;;11.50;;
35961;SDS011;22044;48.298;10.008;2023-01-29T05:41:01;14.37;;;10.50;;
35961;SDS011;22044;48.298;10.008;2023-01-29T05:43:46;16.50;;;11.30;;
35961;SDS011;22044;48.298;10.008;2023-01-29T05:46:35;14.93;;;10.60;;
35961;SDS011;22044;48.298;10.008;2023-01-29T05:49:20;14.00;;;10.27;;
35961;SDS011;22044;48.298;10.008;2023-01-29T05:52:07;14.77;;;10.57;;
35961;SDS011;22044;48.298;10.008;2023-01-29T05:54:54;16.40;;;10.83;;
35961;SDS011;22044;48.298;10.008;2023-01-29T05:57:39;16.47;;;11.27;;
35961;SDS011;22044;48.298;10.008;2023-01-29T06:00:25;14.27;;;10.73;;
35961;SDS011;22044;48.298;10.008;2023-01-29T06:03:11;15.37;;;10.77;;
35961;SDS011;22044;48.298;10.008;2023-01-29T06:05:56;14.47;;;11.07;;
35961;SDS011;22044;48.298;10.008;2023-01-29T06:08:42;13.73;;;10.47;;
35961;SDS011;22044;48.298;10.008;2023-01-29T06:11:29;14.80;;;11.50;;
35961;SDS011;22044;48.298;10.008;2023-01-29T06:14:14;17.07;;;11.90;;
35961;SDS011;22044;48.298;10.008;2023-01-29T06:17:00;15.90;;;12.03;;
35961;SDS011;22044;48.298;10.008;2023-01-29T06:19:46;15.77;;;11.67;;
35961;SDS011;22044;48.298;10.008;2023-01-29T06:22:31;15.87;;;11.47;;
35961;SDS011;22044;48.298;10.008;2023-01-29T06:25:17;15.60;;;11.33;;
35961;SDS011;22044;48.298;10.008;2023-01-29T06:28:04;14.60;;;10.90;;
35961;SDS011;22044;48.298;10.008;2023-01-29T06:30:50;15.23;;;11.60;;
35961;SDS011;22044;48.298;10.008;2023-01-29T06:33:35;15.27;;;11.23;;
35961;SDS011;22044;48.298;10.008;2023-01-29T06:36:21;15.80;;;11.77;;
35961;SDS011;22044;48.298;10.008;2023-01-29T06:39:06;14.43;;;10.47;;
35961;SDS011;22044;48.298;10.008;2023-01-29T06:41:52;16.97;;;12.30;;
35961;SDS011;22044;48.298;10.008;2023-01-29T06:44:39;16.90;;;11.60;;
35961;SDS011;22044;48.298;10.008;2023-01-29T06:47:25;18.73;;;12.03;;
35961;SDS011;22044;48.298;10.008;2023-01-29T06:50:14;17.80;;;11.90;;
35961;SDS011;22044;48.298;10.008;2023-01-29T06:53:00;18.77;;;13.13;;
35961;SDS011;22044;48.298;10.008;2023-01-29T06:55:49;19.57;;;13.23;;
35961;SDS011;22044;48.298;10.008;2023-01-29T06:58:35;21.80;;;13.53;;
35961;SDS011;22044;48.298;10.008;2023-01-29T07:01:23;19.27;;;12.30;;
35961;SDS011;22044;48.298;10.008;2023-01-29T07:04:08;20.40;;;12.97;;
35961;SDS011;22044;48.298;10.008;2023-01-29T07:06:54;21.90;;;14.40;;
35961;SDS011;22044;48.298;10.008;2023-01-29T07:09:40;19.67;;;13.73;;
35961;SDS011;22044;48.298;10.008;2023-01-29T07:12:26;15.67;;;10.50;;
35961;SDS011;22044;48.298;10.008;2023-01-29T07:15:12;17.03;;;12.00;;
35961;SDS011;22044;48.298;10.008;2023-01-29T07:18:00;14.50;;;11.27;;
35961;SDS011;22044;48.298;10.008;2023-01-29T07:20:47;14.57;;;9.87;;
35961;SDS011;22044;48.298;10.008;2023-01-29T07:23:32;13.07;;;8.97;;
35961;SDS011;22044;48.298;10.008;2023-01-29T07:26:18;14.30;;;10.43;;
35961;SDS011;22044;48.298;10.008;2023-01-29T07:29:04;14.33;;;10.03;;
35961;SDS011;22044;48.298;10.008;2023-01-29T07:31:49;13.23;;;9.00;;
35961;SDS011;22044;48.298;10.008;2023-01-29T07:34:36;12.60;;;9.50;;
35961;SDS011;22044;48.298;10.008;2023-01-29T07:37:21;10.70;;;8.27;;
35961;SDS011;22044;48.298;10.008;2023-01-29T07:40:07;11.77;;;8.20;;
35961;SDS011;22044;48.298;10.008;2023-01-29T07:42:56;12.10;;;8.97;;
35961;SDS011;22044;48.298;10.008;2023-01-29T07:45:42;11.37;;;8.63;;
35961;SDS011;22044;48.298;10.008;2023-01-29T07:48:28;13.63;;;9.60;;
35961;SDS011;22044;48.298;10.008;2023-01-29T07:51:15;12.57;;;9.13;;
35961;SDS011;22044;48.298;10.008;2023-01-29T07:54:01;10.80;;;8.30;;
35961;SDS011;22044;48.298;10.008;2023-01-29T07:56:46;17.17;;;12.30;;
35961;SDS011;22044;48.298;10.008;2023-01-29T07:59:32;13.27;;;9.57;;
35961;SDS011;22044;48.298;10.008;2023-01-29T08:02:17;12.87;;;9.87;;
35961;SDS011;22044;48.298;10.008;2023-01-29T08:05:03;11.87;;;8.87;;
35961;SDS011;22044;48.298;10.008;2023-01-29T08:07:52;12.03;;;9.57;;
35961;SDS011;22044;48.298;10.008;2023-01-29T08:10:38;13.03;;;9.73;;
35961;SDS011;22044;48.298;10.008;2023-01-29T08:13:24;13.67;;;9.27;;
35961;SDS011;22044;48.298;10.008;2023-01-29T08:16:10;13.17;;;10.17;;
35961;SDS011;22044;48.298;10.008;2023-01-29T08:19:00;12.03;;;9.93;;
35961;SDS011;22044;48.298;10.008;2023-01-29T08:21:46;13.80;;;10.63;;
35961;SDS011;22044;48.298;10.008;2023-01-29T08:24:33;12.80;;;9.27;;
35961;SDS011;22044;48.298;10.008;2023-01-29T08:27:18;14.97;;;10.10;;
35961;SDS011;22044;48.298;10.008;2023-01-29T08:30:04;11.90;;;9.27;;
35961;SDS011;22044;48.298;10.008;2023-01-29T08:32:51;10.70;;;8.33;;
35961;SDS011;22044;48.298;10.008;2023-01-29T08:35:37;8.97;;;7.13;;
35961;SDS011;22044;48.298;10.008;2023-01-29T08:38:24;9.70;;;7.50;;
35961;SDS011;22044;48.298;10.008;2023-01-29T08:41:11;10.43;;;7.63;;
35961;SDS011;22044;48.298;10.008;2023-01-29T08:43:57;13.07;;;8.77;;
35961;SDS011;22044;48.298;10.008;2023-01-29T08:46:44;11.73;;;8.77;;
35961;SDS011;22044;48.298;10.008;2023-01-29T08:49:29;10.70;;;7.97;;
35961;SDS011;22044;48.298;10.008;2023-01-29T08:52:15;10.40;;;8.00;;
35961;SDS011;22044;48.298;10.008;2023-01-29T08:55:00;12.60;;;9.17;;
35961;SDS011;22044;48.298;10.008;2023-01-29T08:57:47;10.50;;;8.33;;
35961;SDS011;22044;48.298;10.008;2023-01-29T09:00:36;9.63;;;8.13;;
35961;SDS011;22044;48.298;10.008;2023-01-29T09:03:22;12.20;;;7.97;;
35961;SDS011;22044;48.298;10.008;2023-01-29T09:06:08;11.80;;;8.90;;
35961;SDS011;22044;48.298;10.008;2023-01-29T09:08:55;11.70;;;8.80;;
35961;SDS011;22044;48.298;10.008;2023-01-29T09:11:41;11.43;;;7.90;;
35961;SDS011;22044;48.298;10.008;2023-01-29T09:14:28;14.33;;;10.80;;
35961;SDS011;22044;48.298;10.008;2023-01-29T09:17:14;12.97;;;9.00;;
35961;SDS011;22044;48.298;10.008;2023-01-29T09:19:59;11.57;;;8.13;;
35961;SDS011;22044;48.298;10.008;2023-01-29T09:22:45;10.17;;;8.23;;
35961;SDS011;22044;48.298;10.008;2023-01-29T09:25:31;9.83;;;7.17;;
35961;SDS011;22044;48.298;10.008;2023-01-29T09:28:17;11.00;;;8.30;;
35961;SDS011;22044;48.298;10.008;2023-01-29T09:31:04;11.60;;;8.77;;
35961;SDS011;22044;48.298;10.008;2023-01-29T09:33:50;10.20;;;8.03;;
35961;SDS011;22044;48.298;10.008;2023-01-29T09:36:35;10.20;;;7.80;;
35961;SDS011;22044;48.298;10.008;2023-01-29T09:39:21;14.00;;;9.70;;
35961;SDS011;22044;48.298;10.008;2023-01-29T09:42:07;10.23;;;8.27;;
35961;SDS011;22044;48.298;10.008;2023-01-29T09:45:00;12.67;;;8.20;;
35961;SDS011;22044;48.298;10.008;2023-01-29T09:47:51;12.20;;;9.37;;
35961;SDS011;22044;48.298;10.008;2023-01-29T09:50:39;10.03;;;8.27;;
35961;SDS011;22044;48.298;10.008;2023-01-29T09:53:29;11.57;;;9.10;;
35961;SDS011;22044;48.298;10.008;2023-01-29T09:56:20;11.30;;;8.57;;
35961;SDS011;22044;48.298;10.008;2023-01-29T09:59:12;17.10;;;11.03;;
35961;SDS011;22044;48.298;10.008;2023-01-29T10:02:04;22.23;;;14.97;;
35961;SDS011;22044;48.298;10.008;2023-01-29T10:04:59;13.27;;;9.97;;
35961;SDS011;22044;48.298;10.008;2023-01-29T10:08:27;16.17;;;10.90;;
35961;SDS011;22044;48.298;10.008;2023-01-29T10:11:30;15.10;;;10.33;;
35961;SDS011;22044;48.298;10.008;2023-01-29T10:14:23;12.30;;;9.67;;
35961;SDS011;22044;48.298;10.008;2023-01-29T10:17:19;11.93;;;9.80;;
35961;SDS011;22044;48.298;10.008;2023-01-29T10:20:22;13.70;;;10.43;;
35961;SDS011;22044;48.298;10.008;2023-01-29T10:23:17;13.03;;;10.10;;
35961;SDS011;22044;48.298;10.008;2023-01-29T10:26:11;12.47;;;10.33;;
35961;SDS011;22044;48.298;10.008;2023-01-29T10:28:57;11.93;;;9.63;;
35961;SDS011;22044;48.298;10.008;2023-01-29T10:31:49;11.73;;;8.73;;
35961;SDS011;22044;48.298;10.008;2023-01-29T10:34:39;11.30;;;8.83;;
35961;SDS011;22044;48.298;10.008;2023-01-29T10:37:33;12.73;;;10.37;;
35961;SDS011;22044;48.298;10.008;2023-01-29T10:40:30;13.53;;;9.97;;
35961;SDS011;22044;48.298;10.008;2023-01-29T10:43:23;13.80;;;9.93;;
35961;SDS011;22044;48.298;10.008;2023-01-29T10:46:18;14.73;;;9.77;;
35961;SDS011;22044;48.298;10.008;2023-01-29T10:49:14;19.13;;;12.27;;
35961;SDS011;22044;48.298;10.008;2023-01-29T10:52:09;18.90;;;13.33;;
35961;SDS011;22044;48.298;10.008;2023-01-29T10:55:13;13.37;;;10.40;;
35961;SDS011;22044;48.298;10.008;2023-01-29T10:58:08;13.03;;;9.90;;
35961;SDS011;22044;48.298;10.008;2023-01-29T11:01:03;13.90;;;10.37;;
35961;SDS011;22044;48.298;10.008;2023-01-29T11:03:54;17.30;;;12.20;;
35961;SDS011;22044;48.298;10.008;2023-01-29T11:06:41;14.00;;;9.80;;
35961;SDS011;22044;48.298;10.008;2023-01-29T11:09:28;41.83;;;24.93;;
35961;SDS011;22044;48.298;10.008;2023-01-29T11:12:19;22.67;;;17.73;;
35961;SDS011;22044;48.298;10.008;2023-01-29T11:15:14;33.00;;;24.53;;
35961;SDS011;22044;48.298;10.008;2023-01-29T11:18:04;15.67;;;11.20;;
35961;SDS011;22044;48.298;10.008;2023-01-29T11:20:58;13.07;;;9.97;;
35961;SDS011;22044;48.298;10.008;2023-01-29T11:23:46;17.93;;;10.77;;
35961;SDS011;22044;48.298;10.008;2023-01-29T11:26:33;20.63;;;14.00;;
35961;SDS011;22044;48.298;10.008;2023-01-29T11:29:36;14.07;;;10.37;;
35961;SDS011;22044;48.298;10.008;2023-01-29T11:32:24;12.07;;;9.70;;
35961;SDS011;22044;48.298;10.008;2023-01-29T11:35:19;13.63;;;10.10;;
35961;SDS011;22044;48.298;10.008;2023-01-29T11:38:07;14.80;;;10.77;;
35961;SDS011;22044;48.298;10.008;2023-01-29T11:41:04;25.40;;;19.03;;
35961;SDS011;22044;48.298;10.008;2023-01-29T11:43:51;19.07;;;14.53;;
35961;SDS011;22044;48.298;10.008;2023-01-29T11:46:39;14.00;;;10.57;;
35961;SDS011;22044;48.298;10.008;2023-01-29T11:49:31;12.27;;;9.77;;
35961;SDS011;22044;48.298;10.008;2023-01-29T11:52:18;14.00;;;10.40;;
35961;SDS011;22044;48.298;10.008;2023-01-29T11:55:06;13.10;;;10.00;;
35961;SDS011;22044;48.298;10.008;2023-01-29T11:58:00;13.20;;;9.73;;
35961;SDS011;22044;48.298;10.008;2023-01-29T12:00:49;12.60;;;9.90;;
35961;SDS011;22044;48.298;10.008;2023-01-29T12:03:43;13.10;;;10.37;;
35961;SDS011;22044;48.298;10.008;2023-01-29T12:06:33;14.20;;;11.53;;
35961;SDS011;22044;48.298;10.008;2023-01-29T12:09:21;15.67;;;11.40;;
35961;SDS011;22044;48.298;10.008;2023-01-29T12:12:17;13.40;;;10.20;;
35961;SDS011;22044;48.298;10.008;2023-01-29T12:15:16;13.73;;;10.37;;
35961;SDS011;22044;48.298;10.008;2023-01-29T12:18:06;14.23;;;11.00;;
35961;SDS011;22044;48.298;10.008;2023-01-29T12:21:00;13.30;;;9.90;;
35961;SDS011;22044;48.298;10.008;2023-01-29T12:23:52;12.97;;;10.33;;
35961;SDS011;22044;48.298;10.008;2023-01-29T12:26:42;15.47;;;12.70;;
35961;SDS011;22044;48.298;10.008;2023-01-29T12:29:33;14.80;;;10.60;;
35961;SDS011;22044;48.298;10.008;2023-01-29T12:32:26;15.07;;;11.30;;
35961;SDS011;22044;48.298;10.008;2023-01-29T12:35:18;14.03;;;10.23;;
35961;SDS011;22044;48.298;10.008;2023-01-29T12:38:12;12.73;;;9.80;;
35961;SDS011;22044;48.298;10.008;2023-01-29T12:41:03;13.10;;;10.23;;
35961;SDS011;22044;48.298;10.008;2023-01-29T12:43:52;14.57;;;10.83;;
35961;SDS011;22044;48.298;10.008;2023-01-29T12:46:42;16.47;;;10.50;;
35961;SDS011;22044;48.298;10.008;2023-01-29T12:49:34;14.93;;;11.53;;
35961;SDS011;22044;48.298;10.008;2023-01-29T12:52:27;15.40;;;11.97;;
35961;SDS011;22044;48.298;10.008;2023-01-29T12:55:23;15.80;;;11.87;;
35961;SDS011;22044;48.298;10.008;2023-01-29T12:58:13;14.27;;;10.93;;
35961;SDS011;22044;48.298;10.008;2023-01-29T13:01:02;12.67;;;9.93;;
35961;SDS011;22044;48.298;10.008;2023-01-29T13:03:52;15.47;;;11.33;;
35961;SDS011;22044;48.298;10.008;2023-01-29T13:06:45;21.07;;;14.40;;
35961;SDS011;22044;48.298;10.008;2023-01-29T13:09:35;22.83;;;15.60;;
35961;SDS011;22044;48.298;10.008;2023-01-29T13:12:24;14.33;;;10.90;;
35961;SDS011;22044;48.298;10.008;2023-01-29T13:15:16;14.67;;;11.23;;
35961;SDS011;22044;48.298;10.008;2023-01-29T13:18:22;15.07;;;10.83;;
35961;SDS011;22044;48.298;10.008;2023-01-29T13:21:17;14.80;;;10.53;;
35961;SDS011;22044;48.298;10.008;2023-01-29T13:24:08;15.13;;;11.53;;
35961;SDS011;22044;48.298;10.008;2023-01-29T13:27:00;16.00;;;11.50;;
35961;SDS011;22044;48.298;10.008;2023-01-29T13:29:50;13.57;;;10.83;;
35961;SDS011;22044;48.298;10.008;2023-01-29T13:32:36;15.10;;;11.00;;
35961;SDS011;22044;48.298;10.008;2023-01-29T13:35:25;14.97;;;10.97;;
35961;SDS011;22044;48.298;10.008;2023-01-29T13:38:21;15.80;;;11.23;;
35961;SDS011;22044;48.298;10.008;2023-01-29T13:41:09;15.43;;;11.50;;
35961;SDS011;22044;48.298;10.008;2023-01-29T13:43:55;15.83;;;11.43;;
35961;SDS011;22044;48.298;10.008;2023-01-29T13:46:42;15.93;;;11.00;;
35961;SDS011;22044;48.298;10.008;2023-01-29T13:49:36;15.77;;;10.80;;
35961;SDS011;22044;48.298;10.008;2023-01-29T13:52:31;16.70;;;11.87;;
35961;SDS011;22044;48.298;10.008;2023-01-29T13:55:26;16.17;;;11.23;;
35961;SDS011;22044;48.298;10.008;2023-01-29T13:58:15;17.23;;;12.50;;
35961;SDS011;22044;48.298;10.008;2023-01-29T14:04:48;16.70;;;11.60;;
35961;SDS011;22044;48.298;10.008;2023-01-29T14:07:38;16.93;;;11.93;;
35961;SDS011;22044;48.298;10.008;2023-01-29T14:10:34;20.97;;;14.23;;
35961;SDS011;22044;48.298;10.008;2023-01-29T14:13:27;18.07;;;12.33;;
35961;SDS011;22044;48.298;10.008;2023-01-29T14:16:26;19.60;;;12.10;;
35961;SDS011;22044;48.298;10.008;2023-01-29T14:19:20;17.67;;;12.73;;
35961;SDS011;22044;48.298;10.008;2023-01-29T14:22:14;18.10;;;12.63;;
35961;SDS011;22044;48.298;10.008;2023-01-29T14:25:04;16.80;;;12.10;;
35961;SDS011;22044;48.298;10.008;2023-01-29T14:27:51;15.20;;;12.03;;
35961;SDS011;22044;48.298;10.008;2023-01-29T14:30:37;18.70;;;13.53;;
35961;SDS011;22044;48.298;10.008;2023-01-29T14:33:26;16.60;;;12.37;;
35961;SDS011;22044;48.298;10.008;2023-01-29T14:36:18;18.40;;;13.37;;
35961;SDS011;22044;48.298;10.008;2023-01-29T14:39:05;17.17;;;11.93;;
35961;SDS011;22044;48.298;10.008;2023-01-29T14:41:51;19.87;;;14.43;;
35961;SDS011;22044;48.298;10.008;2023-01-29T14:47:59;20.83;;;14.43;;
35961;SDS011;22044;48.298;10.008;2023-01-29T14:50:47;21.10;;;15.53;;
35961;SDS011;22044;48.298;10.008;2023-01-29T14:53:48;16.37;;;12.53;;
35961;SDS011;22044;48.298;10.008;2023-01-29T14:56:39;17.47;;;12.63;;
35961;SDS011;22044;48.298;10.008;2023-01-29T14:59:29;15.23;;;11.63;;
35961;SDS011;22044;48.298;10.008;2023-01-29T15:02:21;16.63;;;12.97;;
35961;SDS011;22044;48.298;10.008;2023-01-29T15:05:09;17.53;;;12.43;;
35961;SDS011;22044;48.298;10.008;2023-01-29T15:07:59;16.57;;;12.60;;
35961;SDS011;22044;48.298;10.008;2023-01-29T15:10:51;16.97;;;12.30;;
35961;SDS011;22044;48.298;10.008;2023-01-29T15:13:52;14.73;;;11.17;;
35961;SDS011;22044;48.298;10.008;2023-01-29T15:16:43;18.10;;;12.63;;
35961;SDS011;22044;48.298;10.008;2023-01-29T15:19:34;17.27;;;12.23;;
35961;SDS011;22044;48.298;10.008;2023-01-29T15:22:22;17.03;;;11.77;;
35961;SDS011;22044;48.298;10.008;2023-01-29T15:25:12;16.50;;;12.17;;
35961;SDS011;22044;48.298;10.008;2023-01-29T15:28:03;16.70;;;11.97;;
35961;SDS011;22044;48.298;10.008;2023-01-29T15:30:55;16.20;;;12.23;;
35961;SDS011;22044;48.298;10.008;2023-01-29T15:33:43;18.93;;;13.30;;
35961;SDS011;22044;48.298;10.008;2023-01-29T15:36:32;25.23;;;15.83;;
35961;SDS011;22044;48.298;10.008;2023-01-29T15:39:23;18.13;;;13.43;;
35961;SDS011;22044;48.298;10.008;2023-01-29T15:42:11;31.77;;;19.53;;
35961;SDS011;22044;48.298;10.008;2023-01-29T15:45:18;27.83;;;17.80;;
35961;SDS011;22044;48.298;10.008;2023-01-29T15:48:06;22.97;;;16.13;;
35961;SDS011;22044;48.298;10.008;2023-01-29T15:50:59;27.83;;;18.93;;
35961;SDS011;22044;48.298;10.008;2023-01-29T15:53:48;23.40;;;16.53;;
35961;SDS011;22044;48.298;10.008;2023-01-29T15:56:37;20.43;;;15.10;;
35961;SDS011;22044;48.298;10.008;2023-01-29T15:59:25;16.80;;;13.07;;
35961;SDS011;22044;48.298;10.008;2023-01-29T16:02:20;18.53;;;12.77;;
35961;SDS011;22044;48.298;10.008;2023-01-29T16:05:13;21.07;;;14.50;;
35961;SDS011;22044;48.298;10.008;2023-01-29T16:08:01;20.33;;;14.90;;
35961;SDS011;22044;48.298;10.008;2023-01-29T16:10:51;19.27;;;14.33;;
35961;SDS011;22044;48.298;10.008;2023-01-29T16:13:40;18.60;;;13.30;;
35961;SDS011;22044;48.298;10.008;2023-01-29T16:16:27;18.33;;;16.40;;
35961;SDS011;22044;48.298;10.008;2023-01-29T16:19:21;17.20;;;13.60;;
35961;SDS011;22044;48.298;10.008;2023-01-29T16:22:07;20.20;;;13.83;;
35961;SDS011;22044;48.298;10.008;2023-01-29T16:24:53;22.43;;;14.63;;
35961;SDS011;22044;48.298;10.008;2023-01-29T16:27:39;25.37;;;16.33;;
35961;SDS011;22044;48.298;10.008;2023-01-29T16:30:27;25.23;;;16.47;;
35961;SDS011;22044;48.298;10.008;2023-01-29T16:33:13;21.77;;;15.17;;
35961;SDS011;22044;48.298;10.008;2023-01-29T16:36:02;21.07;;;14.87;;
35961;SDS011;22044;48.298;10.008;2023-01-29T16:38:49;24.93;;;17.63;;
35961;SDS011;22044;48.298;10.008;2023-01-29T16:41:37;30.17;;;18.73;;